sensor_id;sensor_type;location;lat;lon;timestamp;pressure;altitude;pressure_sealevel;temperature;humidity
49178;BME280;35016;55.674;37.468;2024-02-26T00:02:19;100054.84;;;-0.12;58.66
49178;BME280;35016;55.674;37.468;2024-02-26T00:04:47;100045.84;;;-0.11;58.59
49178;BME280;35016;55.674;37.468;2024-02-26T00:07:14;100057.69;;;-0.13;58.50
49178;BME280;35016;55.674;37.468;2024-02-26T00:09:41;100056.84;;;-0.14;58.25
49178;BME280;35016;55.674;37.468;2024-02-26T00:12:08;100050.88;;;-0.16;58.16
49178;BME280;35016;55.674;37.468;2024-02-26T00:14:35;100050.03;;;-0.16;58.13
49178;BME280;35016;55.674;37.468;2024-02-26T00:17:02;100058.69;;;-0.14;58.13
49178;BME280;35016;55.674;37.468;2024-02-26T00:19:29;100051.53;;;-0.14;58.04
49178;BME280;35016;55.674;37.468;2024-02-26T00:21:56;100054.66;;;-0.10;58.38
49178;BME280;35016;55.674;37.468;2024-02-26T00:24:25;100050.81;;;-0.08;57.83
49178;BME280;35016;55.674;37.468;2024-02-26T00:26:52;100050.81;;;-0.08;58.12
49178;BME280;35016;55.674;37.468;2024-02-26T00:29:22;100047.66;;;-0.11;57.90
49178;BME280;35016;55.674;37.468;2024-02-26T00:31:49;100031.84;;;-0.13;57.98
49178;BME280;35016;55.674;37.468;2024-02-26T00:34:16;100050.16;;;-0.10;58.13
49178;BME280;35016;55.674;37.468;2024-02-26T00:36:43;100051.16;;;-0.11;58.38
49178;BME280;35016;55.674;37.468;2024-02-26T00:39:11;100036.19;;;-0.12;58.01
49178;BME280;35016;55.674;37.468;2024-02-26T00:41:40;100049.69;;;-0.13;57.68
49178;BME280;35016;55.674;37.468;2024-02-26T00:44:08;100044.19;;;-0.12;58.12
49178;BME280;35016;55.674;37.468;2024-02-26T00:46:35;100032.41;;;-0.17;57.95
49178;BME280;35016;55.674;37.468;2024-02-26T00:49:02;100039.50;;;-0.10;57.99
49178;BME280;35016;55.674;37.468;2024-02-26T00:51:30;100033.34;;;-0.10;57.67
49178;BME280;35016;55.674;37.468;2024-02-26T00:53:58;100039.97;;;-0.06;58.23
49178;BME280;35016;55.674;37.468;2024-02-26T00:56:25;100038.31;;;-0.07;57.77
49178;BME280;35016;55.674;37.468;2024-02-26T00:58:52;100047.28;;;0.00;57.95
49178;BME280;35016;55.674;37.468;2024-02-26T01:01:19;100032.94;;;0.01;57.73
49178;BME280;35016;55.674;37.468;2024-02-26T01:03:47;100038.75;;;0.05;57.99
49178;BME280;35016;55.674;37.468;2024-02-26T01:06:14;100034.88;;;0.07;57.66
49178;BME280;35016;55.674;37.468;2024-02-26T01:08:41;100033.06;;;0.08;57.43
49178;BME280;35016;55.674;37.468;2024-02-26T01:11:28;100033.41;;;0.05;56.89
49178;BME280;35016;55.674;37.468;2024-02-26T01:13:55;100038.09;;;0.03;57.81
49178;BME280;35016;55.674;37.468;2024-02-26T01:16:24;100036.09;;;0.05;57.84
49178;BME280;35016;55.674;37.468;2024-02-26T01:18:51;100044.91;;;0.05;57.73
49178;BME280;35016;55.674;37.468;2024-02-26T01:21:18;100030.56;;;0.06;57.96
49178;BME280;35016;55.674;37.468;2024-02-26T01:23:45;100038.22;;;0.09;57.75
49178;BME280;35016;55.674;37.468;2024-02-26T01:26:12;100044.53;;;0.08;57.70
49178;BME280;35016;55.674;37.468;2024-02-26T01:28:40;100033.59;;;0.03;57.37
49178;BME280;35016;55.674;37.468;2024-02-26T01:31:09;100029.59;;;-0.01;57.46
49178;BME280;35016;55.674;37.468;2024-02-26T01:33:36;100035.28;;;-0.04;57.55
49178;BME280;35016;55.674;37.468;2024-02-26T01:36:04;100033.16;;;-0.09;57.62
49178;BME280;35016;55.674;37.468;2024-02-26T01:38:31;100036.75;;;-0.02;57.37
49178;BME280;35016;55.674;37.468;2024-02-26T01:40:58;100024.63;;;-0.04;57.44
49178;BME280;35016;55.674;37.468;2024-02-26T01:43:25;100030.97;;;-0.05;57.49
49178;BME280;35016;55.674;37.468;2024-02-26T01:45:53;100026.47;;;-0.05;57.33
49178;BME280;35016;55.674;37.468;2024-02-26T01:48:20;100029.59;;;-0.01;57.44
49178;BME280;35016;55.674;37.468;2024-02-26T01:50:48;100037.78;;;-0.03;57.67
49178;BME280;35016;55.674;37.468;2024-02-26T01:53:16;100017.00;;;-0.07;57.57
49178;BME280;35016;55.674;37.468;2024-02-26T01:55:44;100018.53;;;-0.13;57.69
49178;BME280;35016;55.674;37.468;2024-02-26T01:58:12;100025.53;;;-0.12;57.66
49178;BME280;35016;55.674;37.468;2024-02-26T02:00:40;100023.03;;;-0.13;57.62
49178;BME280;35016;55.674;37.468;2024-02-26T02:03:07;100014.22;;;-0.14;57.29
49178;BME280;35016;55.674;37.468;2024-02-26T02:05:36;100020.38;;;-0.13;56.96
49178;BME280;35016;55.674;37.468;2024-02-26T02:08:10;100015.03;;;-0.13;56.97
49178;BME280;35016;55.674;37.468;2024-02-26T02:10:38;100017.22;;;-0.17;57.29
49178;BME280;35016;55.674;37.468;2024-02-26T02:13:06;100014.09;;;-0.20;57.22
49178;BME280;35016;55.674;37.468;2024-02-26T02:15:34;100023.09;;;-0.21;57.01
49178;BME280;35016;55.674;37.468;2024-02-26T02:18:02;100022.44;;;-0.23;57.42
49178;BME280;35016;55.674;37.468;2024-02-26T02:20:33;100009.31;;;-0.25;56.98
49178;BME280;35016;55.674;37.468;2024-02-26T02:23:02;100013.63;;;-0.24;57.18
49178;BME280;35016;55.674;37.468;2024-02-26T02:25:30;100005.16;;;-0.27;57.00
49178;BME280;35016;55.674;37.468;2024-02-26T02:27:57;100019.78;;;-0.23;57.23
49178;BME280;35016;55.674;37.468;2024-02-26T02:30:27;100011.97;;;-0.25;57.21
49178;BME280;35016;55.674;37.468;2024-02-26T02:32:55;100002.50;;;-0.27;57.13
49178;BME280;35016;55.674;37.468;2024-02-26T02:35:22;100012.66;;;-0.31;56.93
49178;BME280;35016;55.674;37.468;2024-02-26T02:37:52;100020.00;;;-0.33;57.06
49178;BME280;35016;55.674;37.468;2024-02-26T02:40:19;100009.16;;;-0.32;57.08
49178;BME280;35016;55.674;37.468;2024-02-26T02:42:46;99999.38;;;-0.39;56.80
49178;BME280;35016;55.674;37.468;2024-02-26T02:45:13;100003.53;;;-0.37;57.13
49178;BME280;35016;55.674;37.468;2024-02-26T02:47:41;100000.88;;;-0.37;57.35
49178;BME280;35016;55.674;37.468;2024-02-26T02:50:08;100015.38;;;-0.39;57.29
49178;BME280;35016;55.674;37.468;2024-02-26T02:52:35;99999.44;;;-0.47;57.13
49178;BME280;35016;55.674;37.468;2024-02-26T02:55:03;100013.41;;;-0.45;57.04
49178;BME280;35016;55.674;37.468;2024-02-26T02:57:31;100007.78;;;-0.50;57.27
49178;BME280;35016;55.674;37.468;2024-02-26T02:59:59;99996.66;;;-0.54;57.15
49178;BME280;35016;55.674;37.468;2024-02-26T03:02:26;100006.50;;;-0.54;57.39
49178;BME280;35016;55.674;37.468;2024-02-26T03:04:53;99996.66;;;-0.54;57.16
49178;BME280;35016;55.674;37.468;2024-02-26T03:07:20;99997.97;;;-0.50;56.91
49178;BME280;35016;55.674;37.468;2024-02-26T03:09:48;100010.28;;;-0.49;57.16
49178;BME280;35016;55.674;37.468;2024-02-26T03:12:15;99997.97;;;-0.50;57.06
49178;BME280;35016;55.674;37.468;2024-02-26T03:14:42;100010.47;;;-0.50;57.09
49178;BME280;35016;55.674;37.468;2024-02-26T03:17:09;99997.50;;;-0.53;56.93
49178;BME280;35016;55.674;37.468;2024-02-26T03:19:36;100001.63;;;-0.51;57.13
49178;BME280;35016;55.674;37.468;2024-02-26T03:22:03;100002.00;;;-0.54;56.99
49178;BME280;35016;55.674;37.468;2024-02-26T03:24:31;99999.31;;;-0.54;56.96
49178;BME280;35016;55.674;37.468;2024-02-26T03:26:58;99989.03;;;-0.57;56.63
49178;BME280;35016;55.674;37.468;2024-02-26T03:29:25;99989.03;;;-0.57;57.03
49178;BME280;35016;55.674;37.468;2024-02-26T03:31:52;99997.16;;;-0.58;57.02
49178;BME280;35016;55.674;37.468;2024-02-26T03:34:19;99989.53;;;-0.62;56.99
49178;BME280;35016;55.674;37.468;2024-02-26T03:36:46;99989.34;;;-0.60;57.24
49178;BME280;35016;55.674;37.468;2024-02-26T03:39:13;99994.84;;;-0.62;57.02
49178;BME280;35016;55.674;37.468;2024-02-26T03:41:40;99994.84;;;-0.62;57.02
49178;BME280;35016;55.674;37.468;2024-02-26T03:44:08;99994.03;;;-0.62;56.92
49178;BME280;35016;55.674;37.468;2024-02-26T03:46:35;99995.03;;;-0.63;56.90
49178;BME280;35016;55.674;37.468;2024-02-26T03:49:02;99993.38;;;-0.64;57.11
49178;BME280;35016;55.674;37.468;2024-02-26T03:51:30;99987.09;;;-0.71;56.79
49178;BME280;35016;55.674;37.468;2024-02-26T03:53:58;99988.41;;;-0.67;57.26
49178;BME280;35016;55.674;37.468;2024-02-26T03:56:26;99995.03;;;-0.63;57.22
49178;BME280;35016;55.674;37.468;2024-02-26T03:58:54;99994.19;;;-0.64;57.05
49178;BME280;35016;55.674;37.468;2024-02-26T04:01:21;99995.56;;;-0.68;57.07
49178;BME280;35016;55.674;37.468;2024-02-26T04:03:48;99993.91;;;-0.69;57.07
49178;BME280;35016;55.674;37.468;2024-02-26T04:06:15;100001.25;;;-0.71;56.92
49178;BME280;35016;55.674;37.468;2024-02-26T04:08:45;99992.59;;;-0.73;57.18
49178;BME280;35016;55.674;37.468;2024-02-26T04:11:12;99997.91;;;-0.73;57.00
49178;BME280;35016;55.674;37.468;2024-02-26T04:13:40;99997.91;;;-0.73;57.28
49178;BME280;35016;55.674;37.468;2024-02-26T04:16:07;99986.63;;;-0.75;57.01
49178;BME280;35016;55.674;37.468;2024-02-26T04:18:34;99994.25;;;-0.72;57.09
49178;BME280;35016;55.674;37.468;2024-02-26T04:21:01;100005.72;;;-0.71;57.12
49178;BME280;35016;55.674;37.468;2024-02-26T04:23:30;99994.06;;;-0.70;57.04
49178;BME280;35016;55.674;37.468;2024-02-26T04:25:58;99991.41;;;-0.70;57.45
49178;BME280;35016;55.674;37.468;2024-02-26T04:28:25;99992.59;;;-0.73;56.80
49178;BME280;35016;55.674;37.468;2024-02-26T04:30:53;99999.94;;;-0.75;57.32
49178;BME280;35016;55.674;37.468;2024-02-26T04:33:20;99990.28;;;-0.76;57.04
49178;BME280;35016;55.674;37.468;2024-02-26T04:35:47;99995.97;;;-0.79;56.96
49178;BME280;35016;55.674;37.468;2024-02-26T04:38:15;100010.28;;;-0.80;57.40
49178;BME280;35016;55.674;37.468;2024-02-26T04:40:42;99994.97;;;-0.78;57.44
49178;BME280;35016;55.674;37.468;2024-02-26T04:43:09;100005.94;;;-0.81;57.28
49178;BME280;35016;55.674;37.468;2024-02-26T04:45:36;99990.97;;;-0.82;57.52
49178;BME280;35016;55.674;37.468;2024-02-26T04:48:03;99989.97;;;-0.81;57.41
49178;BME280;35016;55.674;37.468;2024-02-26T04:50:31;100001.47;;;-0.80;57.45
49178;BME280;35016;55.674;37.468;2024-02-26T04:52:58;100004.47;;;-0.83;57.58
49178;BME280;35016;55.674;37.468;2024-02-26T04:55:25;99998.97;;;-0.82;57.70
49178;BME280;35016;55.674;37.468;2024-02-26T04:57:52;99993.66;;;-0.82;57.51
49178;BME280;35016;55.674;37.468;2024-02-26T05:00:19;99993.66;;;-0.82;57.44
49178;BME280;35016;55.674;37.468;2024-02-26T05:02:46;99994.47;;;-0.81;57.58
49178;BME280;35016;55.674;37.468;2024-02-26T05:05:14;99995.13;;;-0.79;57.44
49178;BME280;35016;55.674;37.468;2024-02-26T05:07:41;99989.63;;;-0.78;57.39
49178;BME280;35016;55.674;37.468;2024-02-26T05:10:12;99991.63;;;-0.80;57.71
49178;BME280;35016;55.674;37.468;2024-02-26T05:12:39;99988.16;;;-0.80;57.74
49178;BME280;35016;55.674;37.468;2024-02-26T05:15:10;99983.94;;;-0.75;57.45
49178;BME280;35016;55.674;37.468;2024-02-26T05:17:37;99992.91;;;-0.68;57.58
49178;BME280;35016;55.674;37.468;2024-02-26T05:20:05;99980.75;;;-0.70;57.53
49178;BME280;35016;55.674;37.468;2024-02-26T05:22:34;99992.53;;;-0.65;57.37
49178;BME280;35016;55.674;37.468;2024-02-26T05:25:02;99987.75;;;-0.69;57.64
49178;BME280;35016;55.674;37.468;2024-02-26T05:27:30;99991.19;;;-0.60;57.62
49178;BME280;35016;55.674;37.468;2024-02-26T05:29:57;99991.16;;;-0.52;57.82
49178;BME280;35016;55.674;37.468;2024-02-26T05:32:24;99992.47;;;-0.48;57.84
49178;BME280;35016;55.674;37.468;2024-02-26T05:34:51;99986.31;;;-0.49;57.50
49178;BME280;35016;55.674;37.468;2024-02-26T05:37:19;99991.81;;;-0.50;57.46
49178;BME280;35016;55.674;37.468;2024-02-26T05:39:46;99987.31;;;-0.50;57.50
49178;BME280;35016;55.674;37.468;2024-02-26T05:42:13;99985.13;;;-0.46;57.80
49178;BME280;35016;55.674;37.468;2024-02-26T05:44:40;99983.28;;;-0.46;57.44
49178;BME280;35016;55.674;37.468;2024-02-26T05:47:07;99987.13;;;-0.48;57.69
49178;BME280;35016;55.674;37.468;2024-02-26T05:49:34;99988.63;;;-0.46;57.91
49178;BME280;35016;55.674;37.468;2024-02-26T05:52:01;99999.75;;;-0.42;57.81
49178;BME280;35016;55.674;37.468;2024-02-26T05:54:29;99993.75;;;-0.44;57.76
49178;BME280;35016;55.674;37.468;2024-02-26T05:56:56;100001.88;;;-0.38;57.59
49178;BME280;35016;55.674;37.468;2024-02-26T05:59:23;100006.66;;;-0.33;57.84
49178;BME280;35016;55.674;37.468;2024-02-26T06:01:50;100009.47;;;-0.26;57.91
49178;BME280;35016;55.674;37.468;2024-02-26T06:04:17;99985.59;;;-0.20;57.73
49178;BME280;35016;55.674;37.468;2024-02-26T06:06:45;100001.59;;;-0.20;57.63
49178;BME280;35016;55.674;37.468;2024-02-26T06:09:12;99999.59;;;-0.18;57.60
49178;BME280;35016;55.674;37.468;2024-02-26T06:11:39;100004.56;;;-0.15;57.85
49178;BME280;35016;55.674;37.468;2024-02-26T06:14:07;99998.75;;;-0.18;57.61
49178;BME280;35016;55.674;37.468;2024-02-26T06:16:34;99998.09;;;-0.20;57.85
49178;BME280;35016;55.674;37.468;2024-02-26T06:19:01;100005.63;;;-0.24;57.69
49178;BME280;35016;55.674;37.468;2024-02-26T06:21:29;100004.63;;;-0.23;57.95
49178;BME280;35016;55.674;37.468;2024-02-26T06:23:56;100011.44;;;-0.20;57.72
49178;BME280;35016;55.674;37.468;2024-02-26T06:26:23;99983.88;;;-0.13;57.49
49178;BME280;35016;55.674;37.468;2024-02-26T06:28:50;99993.06;;;-0.15;57.42
49178;BME280;35016;55.674;37.468;2024-02-26T06:31:19;99989.09;;;-0.19;57.86
49178;BME280;35016;55.674;37.468;2024-02-26T06:33:47;99994.44;;;-0.19;57.99
49178;BME280;35016;55.674;37.468;2024-02-26T06:36:18;99998.75;;;-0.18;57.79
49178;BME280;35016;55.674;37.468;2024-02-26T06:38:45;99999.75;;;-0.19;57.75
49178;BME280;35016;55.674;37.468;2024-02-26T06:41:12;100008.34;;;-0.09;57.63
49178;BME280;35016;55.674;37.468;2024-02-26T06:43:39;100011.66;;;-0.07;57.66
49178;BME280;35016;55.674;37.468;2024-02-26T06:46:06;100007.63;;;-0.03;57.83
49178;BME280;35016;55.674;37.468;2024-02-26T06:48:34;100009.09;;;-0.01;57.82
49178;BME280;35016;55.674;37.468;2024-02-26T06:51:04;100007.28;;;0.00;57.78
49178;BME280;35016;55.674;37.468;2024-02-26T06:53:31;100006.28;;;0.01;57.80
49178;BME280;35016;55.674;37.468;2024-02-26T06:55:58;99994.47;;;-0.05;57.74
49178;BME280;35016;55.674;37.468;2024-02-26T06:58:25;100002.94;;;-0.01;57.87
49178;BME280;35016;55.674;37.468;2024-02-26T07:00:52;100002.44;;;0.04;57.67
49178;BME280;35016;55.674;37.468;2024-02-26T07:03:19;99980.38;;;0.10;57.44
49178;BME280;35016;55.674;37.468;2024-02-26T07:05:47;100003.47;;;0.17;57.57
49178;BME280;35016;55.674;37.468;2024-02-26T07:08:14;99989.78;;;0.20;57.41
49178;BME280;35016;55.674;37.468;2024-02-26T07:10:42;99998.69;;;0.27;57.75
49178;BME280;35016;55.674;37.468;2024-02-26T07:13:10;99990.28;;;0.39;57.37
49178;BME280;35016;55.674;37.468;2024-02-26T07:15:37;99992.31;;;0.51;57.00
49178;BME280;35016;55.674;37.468;2024-02-26T07:18:04;99984.44;;;0.58;57.36
49178;BME280;35016;55.674;37.468;2024-02-26T07:20:32;99983.50;;;0.66;56.88
49178;BME280;35016;55.674;37.468;2024-02-26T07:22:59;99989.13;;;0.71;56.78
49178;BME280;35016;55.674;37.468;2024-02-26T07:25:26;99979.28;;;0.71;56.92
49178;BME280;35016;55.674;37.468;2024-02-26T07:27:53;99987.66;;;0.68;57.12
49178;BME280;35016;55.674;37.468;2024-02-26T07:30:20;99987.19;;;0.65;57.03
49178;BME280;35016;55.674;37.468;2024-02-26T07:32:47;99994.56;;;0.63;57.12
49178;BME280;35016;55.674;37.468;2024-02-26T07:35:17;99991.13;;;0.69;56.75
49178;BME280;35016;55.674;37.468;2024-02-26T07:37:47;99984.59;;;0.71;56.74
49178;BME280;35016;55.674;37.468;2024-02-26T07:40:15;99995.38;;;0.78;56.74
49178;BME280;35016;55.674;37.468;2024-02-26T07:42:43;99985.53;;;0.78;57.21
49178;BME280;35016;55.674;37.468;2024-02-26T07:45:10;99986.28;;;0.87;56.70
49178;BME280;35016;55.674;37.468;2024-02-26T07:47:37;99985.34;;;0.95;56.73
49178;BME280;35016;55.674;37.468;2024-02-26T07:50:08;99997.31;;;0.99;56.61
49178;BME280;35016;55.674;37.468;2024-02-26T07:52:36;99982.31;;;0.98;56.52
49178;BME280;35016;55.674;37.468;2024-02-26T07:55:03;99994.91;;;1.04;56.91
49178;BME280;35016;55.674;37.468;2024-02-26T07:57:34;100008.34;;;1.10;56.62
49178;BME280;35016;55.674;37.468;2024-02-26T08:00:02;100007.88;;;1.21;56.64
49178;BME280;35016;55.674;37.468;2024-02-26T08:02:31;99994.41;;;1.30;56.71
49178;BME280;35016;55.674;37.468;2024-02-26T08:04:58;99982.72;;;1.31;56.64
49178;BME280;35016;55.674;37.468;2024-02-26T08:07:26;99996.63;;;1.26;56.65
49178;BME280;35016;55.674;37.468;2024-02-26T08:09:53;99980.78;;;1.24;56.31
49178;BME280;35016;55.674;37.468;2024-02-26T08:12:20;99980.78;;;1.24;56.65
49178;BME280;35016;55.674;37.468;2024-02-26T08:14:47;99988.31;;;1.36;56.66
49178;BME280;35016;55.674;37.468;2024-02-26T08:20:33;99956.81;;;1.31;56.51
49178;BME280;35016;55.674;37.468;2024-02-26T08:27:58;99970.41;;;1.51;56.40
49178;BME280;35016;55.674;37.468;2024-02-26T08:30:25;99974.09;;;1.71;56.27
49178;BME280;35016;55.674;37.468;2024-02-26T08:33:17;99981.56;;;1.76;55.20
49178;BME280;35016;55.674;37.468;2024-02-26T08:44:24;99930.88;;;1.89;55.20
49178;BME280;35016;55.674;37.468;2024-02-26T09:01:50;99943.25;;;2.18;55.26
49178;BME280;35016;55.674;37.468;2024-02-26T09:04:37;99942.91;;;2.28;56.00
49178;BME280;35016;55.674;37.468;2024-02-26T09:07:09;99925.72;;;2.37;55.87
49178;BME280;35016;55.674;37.468;2024-02-26T09:18:34;99953.94;;;2.39;55.80
49178;BME280;35016;55.674;37.468;2024-02-26T09:21:05;99942.25;;;2.47;55.30
49178;BME280;35016;55.674;37.468;2024-02-26T09:23:33;99947.44;;;2.55;55.64
49178;BME280;35016;55.674;37.468;2024-02-26T09:26:02;99954.31;;;2.64;55.57
49178;BME280;35016;55.674;37.468;2024-02-26T09:28:29;99937.41;;;2.64;55.25
49178;BME280;35016;55.674;37.468;2024-02-26T09:31:01;99953.06;;;2.60;55.21
49178;BME280;35016;55.674;37.468;2024-02-26T09:33:28;99946.19;;;2.51;55.20
49178;BME280;35016;55.674;37.468;2024-02-26T09:35:56;99947.34;;;2.42;55.28
49178;BME280;35016;55.674;37.468;2024-02-26T09:38:23;99945.66;;;2.34;55.24
49178;BME280;35016;55.674;37.468;2024-02-26T09:40:51;99943.81;;;2.35;55.41
49178;BME280;35016;55.674;37.468;2024-02-26T09:43:21;99965.03;;;2.36;54.99
49178;BME280;35016;55.674;37.468;2024-02-26T09:45:52;99947.88;;;2.31;55.45
49178;BME280;35016;55.674;37.468;2024-02-26T09:48:21;99947.75;;;2.39;55.27
49178;BME280;35016;55.674;37.468;2024-02-26T09:50:49;99947.78;;;2.45;55.23
49178;BME280;35016;55.674;37.468;2024-02-26T09:53:16;99951.34;;;2.53;55.10
49178;BME280;35016;55.674;37.468;2024-02-26T09:55:45;99946.00;;;2.59;54.90
49178;BME280;35016;55.674;37.468;2024-02-26T09:58:12;99953.94;;;2.74;54.82
49178;BME280;35016;55.674;37.468;2024-02-26T10:00:51;99949.94;;;2.91;54.07
49178;BME280;35016;55.674;37.468;2024-02-26T10:03:21;99948.53;;;3.02;54.22
49178;BME280;35016;55.674;37.468;2024-02-26T10:05:50;99955.94;;;3.00;54.30
49178;BME280;35016;55.674;37.468;2024-02-26T10:08:18;99935.72;;;2.97;53.93
49178;BME280;35016;55.674;37.468;2024-02-26T10:10:49;99945.41;;;2.92;54.47
49178;BME280;35016;55.674;37.468;2024-02-26T10:13:17;99937.72;;;2.89;54.28
49178;BME280;35016;55.674;37.468;2024-02-26T10:15:44;99947.19;;;2.85;54.30
49178;BME280;35016;55.674;37.468;2024-02-26T10:18:11;99937.09;;;2.87;54.25
49178;BME280;35016;55.674;37.468;2024-02-26T10:20:39;99940.59;;;2.87;54.18
49178;BME280;35016;55.674;37.468;2024-02-26T10:23:06;99940.06;;;2.98;54.05
49178;BME280;35016;55.674;37.468;2024-02-26T10:25:34;99932.03;;;2.98;53.88
49178;BME280;35016;55.674;37.468;2024-02-26T10:28:01;99934.50;;;3.00;53.99
49178;BME280;35016;55.674;37.468;2024-02-26T10:30:31;99930.16;;;2.99;53.92
49178;BME280;35016;55.674;37.468;2024-02-26T10:33:03;99934.31;;;3.08;54.10
49178;BME280;35016;55.674;37.468;2024-02-26T10:35:31;99936.63;;;3.18;53.79
49178;BME280;35016;55.674;37.468;2024-02-26T10:37:59;99942.25;;;3.29;53.69
49178;BME280;35016;55.674;37.468;2024-02-26T10:40:26;99934.00;;;3.31;53.49
49178;BME280;35016;55.674;37.468;2024-02-26T10:42:53;99937.09;;;3.34;53.55
49178;BME280;35016;55.674;37.468;2024-02-26T10:45:20;99943.09;;;3.43;53.66
49178;BME280;35016;55.674;37.468;2024-02-26T10:47:50;99934.69;;;3.53;53.64
49178;BME280;35016;55.674;37.468;2024-02-26T10:58:48;99890.34;;;3.50;52.23
49178;BME280;35016;55.674;37.468;2024-02-26T11:01:34;99909.72;;;3.52;53.36
49178;BME280;35016;55.674;37.468;2024-02-26T11:05:12;99921.44;;;3.31;53.52
49178;BME280;35016;55.674;37.468;2024-02-26T11:07:41;99896.22;;;3.13;53.84
49178;BME280;35016;55.674;37.468;2024-02-26T11:10:32;99911.75;;;3.37;53.66
49178;BME280;35016;55.674;37.468;2024-02-26T11:13:42;99897.28;;;3.18;53.73
49178;BME280;35016;55.674;37.468;2024-02-26T11:27:03;99924.78;;;3.60;52.97
49178;BME280;35016;55.674;37.468;2024-02-26T11:30:08;99905.63;;;3.63;53.01
49178;BME280;35016;55.674;37.468;2024-02-26T11:32:29;99910.56;;;3.66;53.01
49178;BME280;35016;55.674;37.468;2024-02-26T11:34:59;99910.56;;;3.59;53.15
49178;BME280;35016;55.674;37.468;2024-02-26T11:37:27;99912.00;;;3.49;53.23
49178;BME280;35016;55.674;37.468;2024-02-26T11:39:55;99903.50;;;3.38;53.33
49178;BME280;35016;55.674;37.468;2024-02-26T11:42:25;99892.78;;;3.32;53.35
49178;BME280;35016;55.674;37.468;2024-02-26T11:44:59;99893.38;;;3.34;53.36
49178;BME280;35016;55.674;37.468;2024-02-26T11:47:37;99895.47;;;3.45;53.46
49178;BME280;35016;55.674;37.468;2024-02-26T11:50:34;99874.47;;;3.68;51.34
49178;BME280;35016;55.674;37.468;2024-02-26T11:59:01;99873.84;;;4.13;51.87
49178;BME280;35016;55.674;37.468;2024-02-26T12:01:48;99880.63;;;4.22;51.27
49178;BME280;35016;55.674;37.468;2024-02-26T12:04:24;99874.63;;;4.26;51.82
49178;BME280;35016;55.674;37.468;2024-02-26T12:07:03;99869.47;;;4.31;52.23
49178;BME280;35016;55.674;37.468;2024-02-26T12:12:49;99882.69;;;4.33;52.34
49178;BME280;35016;55.674;37.468;2024-02-26T12:15:22;99874.84;;;4.31;51.84
49178;BME280;35016;55.674;37.468;2024-02-26T12:17:50;99876.09;;;4.22;52.31
49178;BME280;35016;55.674;37.468;2024-02-26T12:23:06;99892.22;;;4.02;52.30
49178;BME280;35016;55.674;37.468;2024-02-26T12:30:55;99897.56;;;4.02;52.54
49178;BME280;35016;55.674;37.468;2024-02-26T12:38:16;99891.19;;;3.77;52.94
49178;BME280;35016;55.674;37.468;2024-02-26T12:41:48;99865.81;;;3.53;52.91
49178;BME280;35016;55.674;37.468;2024-02-26T12:48:51;99866.38;;;3.22;53.10
49178;BME280;35016;55.674;37.468;2024-02-26T12:51:36;99880.81;;;3.28;52.65
49178;BME280;35016;55.674;37.468;2024-02-26T12:55:08;99884.72;;;3.19;52.41
49178;BME280;35016;55.674;37.468;2024-02-26T12:57:57;99871.88;;;3.07;53.48
49178;BME280;35016;55.674;37.468;2024-02-26T13:01:39;99871.88;;;3.07;52.31
49178;BME280;35016;55.674;37.468;2024-02-26T13:05:19;99860.50;;;2.92;53.32
49178;BME280;35016;55.674;37.468;2024-02-26T13:07:47;99853.88;;;2.88;53.38
49178;BME280;35016;55.674;37.468;2024-02-26T13:17:39;99856.63;;;3.08;53.39
49178;BME280;35016;55.674;37.468;2024-02-26T13:29:06;99877.88;;;3.16;52.68
49178;BME280;35016;55.674;37.468;2024-02-26T13:36:24;99894.44;;;2.85;53.29
49178;BME280;35016;55.674;37.468;2024-02-26T13:38:53;99846.53;;;2.56;53.07
49178;BME280;35016;55.674;37.468;2024-02-26T13:41:22;99867.19;;;2.62;52.94
49178;BME280;35016;55.674;37.468;2024-02-26T13:44:02;99863.84;;;2.60;52.86
49178;BME280;35016;55.674;37.468;2024-02-26T13:46:32;99864.25;;;2.57;52.92
49178;BME280;35016;55.674;37.468;2024-02-26T13:48:59;99860.31;;;2.53;53.08
49178;BME280;35016;55.674;37.468;2024-02-26T13:51:27;99871.44;;;2.49;52.76
49178;BME280;35016;55.674;37.468;2024-02-26T13:53:56;99872.03;;;2.45;52.56
49178;BME280;35016;55.674;37.468;2024-02-26T13:56:29;99874.66;;;2.38;52.41
49178;BME280;35016;55.674;37.468;2024-02-26T13:59:01;99884.31;;;2.33;52.33
49178;BME280;35016;55.674;37.468;2024-02-26T14:01:28;99883.66;;;2.31;52.38
49178;BME280;35016;55.674;37.468;2024-02-26T14:03:59;99878.06;;;2.26;52.44
49178;BME280;35016;55.674;37.468;2024-02-26T14:06:29;99878.44;;;2.16;52.13
49178;BME280;35016;55.674;37.468;2024-02-26T14:08:58;99872.66;;;2.12;52.14
49178;BME280;35016;55.674;37.468;2024-02-26T14:11:33;99876.53;;;2.10;51.83
49178;BME280;35016;55.674;37.468;2024-02-26T14:14:01;99872.69;;;2.19;52.63
49178;BME280;35016;55.674;37.468;2024-02-26T14:16:28;99883.13;;;2.42;52.23
49178;BME280;35016;55.674;37.468;2024-02-26T14:18:58;99871.53;;;2.69;51.78
49178;BME280;35016;55.674;37.468;2024-02-26T14:25:51;99875.44;;;3.28;51.34
49178;BME280;35016;55.674;37.468;2024-02-26T14:28:18;99874.75;;;3.06;51.10
49178;BME280;35016;55.674;37.468;2024-02-26T14:30:55;99892.03;;;2.90;50.90
49178;BME280;35016;55.674;37.468;2024-02-26T14:33:22;99892.16;;;2.75;51.01
49178;BME280;35016;55.674;37.468;2024-02-26T14:35:50;99899.38;;;2.75;50.71
49178;BME280;35016;55.674;37.468;2024-02-26T14:38:17;99909.19;;;2.61;50.71
49178;BME280;35016;55.674;37.468;2024-02-26T14:40:45;99898.13;;;2.36;50.58
49178;BME280;35016;55.674;37.468;2024-02-26T14:43:12;99879.84;;;2.12;50.37
49178;BME280;35016;55.674;37.468;2024-02-26T14:45:40;99884.22;;;1.92;50.43
49178;BME280;35016;55.674;37.468;2024-02-26T14:48:07;99886.34;;;1.75;50.61
49178;BME280;35016;55.674;37.468;2024-02-26T14:50:38;99889.28;;;1.59;50.54
49178;BME280;35016;55.674;37.468;2024-02-26T14:58:33;99907.59;;;1.19;51.16
49178;BME280;35016;55.674;37.468;2024-02-26T15:01:01;99901.44;;;1.04;51.02
49178;BME280;35016;55.674;37.468;2024-02-26T15:03:28;99893.81;;;0.86;50.85
49178;BME280;35016;55.674;37.468;2024-02-26T15:05:55;99886.69;;;0.72;50.71